Time;durP1;ratioP1;P1;durP2;ratioP2;P2;SDS_P1;SDS_P2;PMS_P1;PMS_P2;Temp;Humidity;BMP_temperature;BMP_pressure;BME280_temperature;BME280_humidity;BME280_pressure;Samples;Min_cycle;Max_cycle;Signal;HPM_P1;HPM_P2
2021/01/16 00:00:51;;;;;;;12.15;6.70;;;3.20;69.40;;;;;;5011255;28;20025;-61
2021/01/16 00:03:17;;;;;;;10.88;7.00;;;3.20;69.80;;;;;;5009082;28;20100;-61
2021/01/16 00:05:44;;;;;;;10.10;6.88;;;3.10;67.30;;;;;;5010491;28;20109;-65
2021/01/16 00:08:13;;;;;;;11.15;6.57;;;3.10;69.00;;;;;;5007934;28;20076;-61
2021/01/16 00:10:44;;;;;;;9.85;6.70;;;3.10;67.70;;;;;;5007670;28;20018;-62
2021/01/16 00:13:12;;;;;;;11.38;6.28;;;3.00;67.80;;;;;;5002657;28;20092;-62
2021/01/16 00:15:38;;;;;;;10.60;6.82;;;3.10;68.40;;;;;;5024184;28;20025;-61
2021/01/16 00:18:05;;;;;;;12.45;7.35;;;3.20;67.60;;;;;;5007106;28;20096;-61
2021/01/16 00:20:32;;;;;;;9.80;6.80;;;3.20;68.00;;;;;;4998344;28;20453;-60
2021/01/16 00:22:58;;;;;;;9.30;6.05;;;3.30;66.90;;;;;;5005511;28;20105;-61
2021/01/16 00:25:24;;;;;;;11.10;6.53;;;3.40;67.30;;;;;;5007383;28;20112;-61
2021/01/16 00:27:50;;;;;;;9.88;6.45;;;3.50;66.30;;;;;;5028081;28;20030;-62
2021/01/16 00:30:18;;;;;;;11.25;6.55;;;3.50;65.80;;;;;;5008261;28;20022;-61
2021/01/16 00:32:44;;;;;;;9.50;6.78;;;3.40;64.60;;;;;;5013875;28;20080;-63
2021/01/16 00:35:12;;;;;;;12.68;6.57;;;3.40;64.50;;;;;;5013872;28;20022;-61
2021/01/16 00:37:39;;;;;;;9.20;6.10;;;3.30;64.20;;;;;;5012236;28;20029;-61
2021/01/16 00:40:08;;;;;;;9.95;6.60;;;3.20;63.70;;;;;;5014190;28;20029;-62
2021/01/16 00:42:44;;;;;;;10.23;6.25;;;3.20;64.20;;;;;;5028244;28;20025;-62
2021/01/16 00:45:11;;;;;;;10.10;6.25;;;3.20;64.50;;;;;;5013829;28;20022;-61
2021/01/16 00:47:38;;;;;;;10.05;6.60;;;3.20;64.20;;;;;;5013142;28;20076;-62
2021/01/16 00:50:09;;;;;;;9.88;6.40;;;3.30;64.20;;;;;;5013977;28;20474;-62
2021/01/16 00:52:35;;;;;;;9.68;6.72;;;3.40;63.40;;;;;;5013151;28;20018;-62
2021/01/16 00:55:01;;;;;;;10.32;6.75;;;3.30;63.40;;;;;;5012725;28;20052;-62
2021/01/16 00:57:28;;;;;;;9.98;6.80;;;3.30;63.50;;;;;;5013430;28;20063;-63
2021/01/16 00:59:54;;;;;;;9.52;6.50;;;3.30;62.90;;;;;;5013539;28;20029;-61
2021/01/16 01:02:21;;;;;;;10.10;6.00;;;3.20;62.70;;;;;;5014154;28;20088;-62
2021/01/16 01:04:47;;;;;;;9.38;6.18;;;3.30;62.90;;;;;;5024388;28;20018;-63
2021/01/16 01:07:13;;;;;;;9.95;6.85;;;3.40;62.70;;;;;;4993818;28;20022;-63
2021/01/16 01:09:40;;;;;;;10.52;5.90;;;3.40;62.30;;;;;;5011514;28;20108;-61
2021/01/16 01:12:07;;;;;;;11.20;6.32;;;3.40;61.80;;;;;;5025503;28;20034;-61
2021/01/16 01:14:33;;;;;;;10.23;6.43;;;3.40;61.70;;;;;;4995982;28;20049;-62
2021/01/16 01:16:59;;;;;;;10.93;6.70;;;3.30;64.00;;;;;;5013338;28;20026;-62
2021/01/16 01:19:24;;;;;;;10.43;6.47;;;3.20;64.90;;;;;;5013175;28;20540;-62
2021/01/16 01:21:50;;;;;;;8.98;5.80;;;3.10;64.40;;;;;;5012559;28;20036;-62
2021/01/16 01:24:16;;;;;;;9.55;5.93;;;3.20;62.30;;;;;;5021377;28;20125;-61
2021/01/16 01:26:43;;;;;;;8.82;5.63;;;3.10;61.70;;;;;;5011763;28;20099;-62
2021/01/16 01:29:08;;;;;;;10.27;6.10;;;3.10;62.10;;;;;;5013207;28;20080;-62
2021/01/16 01:31:36;;;;;;;8.93;6.22;;;3.20;62.60;;;;;;5011577;28;20105;-62
2021/01/16 01:34:05;;;;;;;9.15;6.55;;;3.20;61.60;;;;;;5013101;28;20126;-62
2021/01/16 01:36:31;;;;;;;9.00;6.45;;;3.20;61.50;;;;;;5012359;28;20104;-62
2021/01/16 01:38:56;;;;;;;8.95;5.80;;;3.10;61.40;;;;;;5012546;28;20506;-62
2021/01/16 01:41:23;;;;;;;10.38;6.93;;;3.20;61.60;;;;;;5013797;28;20025;-62
2021/01/16 01:43:48;;;;;;;9.85;6.43;;;3.30;61.30;;;;;;5012564;28;20052;-62
2021/01/16 01:46:18;;;;;;;9.13;6.30;;;3.20;60.90;;;;;;5012638;28;20203;-61
2021/01/16 01:48:43;;;;;;;10.15;6.10;;;3.20;61.40;;;;;;4994821;28;20029;-62
2021/01/16 01:51:11;;;;;;;7.97;5.47;;;3.20;61.60;;;;;;5012639;28;20025;-62
2021/01/16 01:53:38;;;;;;;9.75;6.88;;;3.10;61.30;;;;;;5010615;28;20101;-62
2021/01/16 01:56:05;;;;;;;9.75;6.50;;;3.10;61.50;;;;;;5012597;28;20421;-62
2021/01/16 01:58:33;;;;;;;8.98;6.47;;;3.10;61.60;;;;;;5027774;28;20363;-62
2021/01/16 02:01:00;;;;;;;10.57;6.20;;;3.20;61.80;;;;;;4993352;28;20371;-63
2021/01/16 02:03:25;;;;;;;10.10;6.68;;;3.20;60.90;;;;;;5006895;28;20113;-60
2021/01/16 02:08:39;;;;;;;9.73;6.80;;;3.10;61.10;;;;;;5012357;28;20048;-63
2021/01/16 02:11:05;;;;;;;9.48;6.68;;;3.10;61.40;;;;;;5012398;28;20443;-61
2021/01/16 02:13:31;;;;;;;8.95;6.20;;;3.10;61.60;;;;;;5011898;28;20025;-62
2021/01/16 02:16:09;;;;;;;10.57;6.22;;;3.00;61.10;;;;;;5023652;28;20029;-61
2021/01/16 02:18:43;;;;;;;9.15;5.95;;;3.00;61.60;;;;;;5011405;28;20523;-62
2021/01/16 02:21:12;;;;;;;10.60;6.03;;;3.00;61.10;;;;;;5011873;28;20101;-62
2021/01/16 02:24:15;;;;;;;12.07;6.82;;;3.00;60.90;;;;;;5011365;28;20076;-62
2021/01/16 02:26:58;;;;;;;10.50;6.43;;;3.00;60.80;;;;;;5011594;28;20045;-62
2021/01/16 02:29:25;;;;;;;9.75;6.28;;;3.00;61.00;;;;;;5002228;28;20050;-62
2021/01/16 02:31:58;;;;;;;9.48;6.47;;;3.00;60.50;;;;;;4992398;28;20161;-61
2021/01/16 02:34:28;;;;;;;9.55;6.18;;;3.00;60.50;;;;;;5002231;28;20486;-62
2021/01/16 02:37:19;;;;;;;9.27;6.28;;;2.90;60.90;;;;;;4990557;28;20246;-62
2021/01/16 02:40:00;;;;;;;11.02;6.40;;;3.00;60.70;;;;;;4991679;28;20390;-62
2021/01/16 02:42:45;;;;;;;8.98;6.05;;;3.00;60.30;;;;;;5009026;28;20053;-63
2021/01/16 02:45:21;;;;;;;10.32;5.93;;;3.00;60.30;;;;;;5011275;28;20022;-63
2021/01/16 02:48:00;;;;;;;8.90;5.82;;;3.00;60.10;;;;;;5011413;28;20076;-63
2021/01/16 02:50:28;;;;;;;10.10;6.13;;;2.90;60.40;;;;;;5012531;28;20018;-62
2021/01/16 02:52:56;;;;;;;9.95;6.10;;;3.00;60.40;;;;;;5010953;28;20455;-63
2021/01/16 02:55:21;;;;;;;8.82;5.72;;;3.00;60.30;;;;;;5001392;28;20046;-62
2021/01/16 02:57:47;;;;;;;8.48;5.82;;;3.00;60.40;;;;;;4999343;28;20033;-63
2021/01/16 03:00:19;;;;;;;8.73;6.13;;;3.00;60.10;;;;;;4999784;28;20026;-63
2021/01/16 03:02:45;;;;;;;10.60;6.72;;;2.90;60.50;;;;;;5006213;28;20049;-63
2021/01/16 03:05:10;;;;;;;9.15;5.78;;;2.90;60.80;;;;;;5011551;28;20034;-63
2021/01/16 03:07:36;;;;;;;9.30;6.18;;;3.00;61.00;;;;;;5023378;28;20475;-64
2021/01/16 03:10:10;;;;;;;10.20;6.18;;;2.90;61.20;;;;;;5000934;28;20350;-62
2021/01/16 03:12:37;;;;;;;9.82;6.78;;;2.80;62.80;;;;;;5011930;28;20076;-62
2021/01/16 03:15:07;;;;;;;10.20;6.38;;;2.70;64.00;;;;;;5026525;28;20018;-62
2021/01/16 03:17:45;;;;;;;9.43;6.53;;;2.70;64.30;;;;;;5010909;28;20026;-62
2021/01/16 03:20:18;;;;;;;10.65;5.90;;;2.60;65.00;;;;;;5011556;28;20088;-62
2021/01/16 03:22:44;;;;;;;8.32;5.90;;;2.50;63.60;;;;;;5011408;28;20026;-61
2021/01/16 03:25:10;;;;;;;9.95;6.45;;;2.40;63.60;;;;;;5011142;28;20034;-62
2021/01/16 03:27:35;;;;;;;10.68;6.35;;;2.50;63.80;;;;;;5011891;28;20182;-62
2021/01/16 03:30:03;;;;;;;10.07;6.30;;;2.60;63.60;;;;;;5010110;28;20143;-62
2021/01/16 03:32:28;;;;;;;9.43;6.43;;;2.60;62.80;;;;;;5015127;28;20022;-61
2021/01/16 03:34:54;;;;;;;10.52;6.32;;;2.70;62.60;;;;;;5014867;28;20364;-61
2021/01/16 03:37:21;;;;;;;10.32;6.80;;;2.70;62.70;;;;;;5014928;28;20025;-61
2021/01/16 03:39:46;;;;;;;10.52;6.38;;;2.80;62.30;;;;;;4997581;28;20106;-61
2021/01/16 03:42:12;;;;;;;8.95;5.85;;;2.90;61.30;;;;;;5001229;28;20482;-62
2021/01/16 03:44:38;;;;;;;9.60;5.72;;;2.80;61.10;;;;;;5015458;28;20025;-62
2021/01/16 03:47:05;;;;;;;10.93;6.03;;;2.80;61.10;;;;;;5015670;28;20025;-61
2021/01/16 03:49:31;;;;;;;8.93;6.00;;;2.80;61.80;;;;;;5014951;28;20026;-61
2021/01/16 03:51:57;;;;;;;9.48;5.60;;;2.80;61.20;;;;;;5014023;28;20064;-61
2021/01/16 03:54:22;;;;;;;9.05;5.53;;;2.80;60.70;;;;;;5014510;28;20049;-61
2021/01/16 03:56:48;;;;;;;8.63;5.63;;;2.70;61.90;;;;;;5014064;28;20085;-62
2021/01/16 03:59:14;;;;;;;9.80;6.55;;;2.60;62.50;;;;;;5014998;28;20402;-62
2021/01/16 04:01:41;;;;;;;9.25;5.97;;;2.60;63.60;;;;;;5014278;28;20061;-62
2021/01/16 04:04:07;;;;;;;11.45;5.97;;;2.60;64.30;;;;;;5029746;28;20101;-62
2021/01/16 04:06:32;;;;;;;9.35;6.32;;;2.70;64.70;;;;;;5014350;28;20033;-62
2021/01/16 04:08:58;;;;;;;9.18;6.03;;;2.70;65.80;;;;;;5014262;28;20029;-62
2021/01/16 04:11:23;;;;;;;10.48;6.82;;;2.60;66.50;;;;;;5014916;28;20068;-62
2021/01/16 04:13:49;;;;;;;8.52;6.22;;;2.60;66.80;;;;;;5013761;28;20057;-62
2021/01/16 04:16:15;;;;;;;10.00;6.32;;;2.70;66.30;;;;;;5014383;28;20550;-62
2021/01/16 04:18:41;;;;;;;11.73;7.22;;;2.60;67.40;;;;;;5014141;28;20348;-63
2021/01/16 04:21:06;;;;;;;9.10;6.28;;;2.50;68.10;;;;;;5014805;28;20026;-62
2021/01/16 04:23:32;;;;;;;11.45;6.80;;;2.60;69.20;;;;;;5014282;28;20413;-61
2021/01/16 04:25:59;;;;;;;10.75;7.22;;;2.60;69.50;;;;;;5013780;28;20029;-62
2021/01/16 04:28:25;;;;;;;11.73;7.78;;;2.60;70.50;;;;;;5014365;28;20037;-62
2021/01/16 04:30:51;;;;;;;11.80;7.30;;;2.70;71.20;;;;;;5013520;28;20026;-63
2021/01/16 04:33:17;;;;;;;15.30;7.60;;;2.70;71.00;;;;;;4997143;28;20455;-62
2021/01/16 04:35:42;;;;;;;17.95;9.20;;;2.70;70.90;;;;;;5010966;28;20026;-63
2021/01/16 04:38:08;;;;;;;12.05;7.95;;;2.70;71.70;;;;;;5025753;28;20452;-62
2021/01/16 04:40:34;;;;;;;12.43;7.88;;;2.70;72.10;;;;;;5010745;28;20025;-62
2021/01/16 04:43:03;;;;;;;11.23;7.65;;;2.70;72.50;;;;;;5011917;28;20076;-62
2021/01/16 04:45:30;;;;;;;12.95;7.97;;;2.60;72.30;;;;;;5014157;28;20034;-62
2021/01/16 04:47:58;;;;;;;10.63;7.50;;;2.60;72.10;;;;;;5013707;28;20121;-63
2021/01/16 04:50:28;;;;;;;10.05;7.57;;;2.60;72.50;;;;;;5012149;28;20036;-62
2021/01/16 04:53:05;;;;;;;11.38;7.70;;;2.60;72.60;;;;;;4994254;28;20102;-62
2021/01/16 04:55:33;;;;;;;9.55;6.60;;;2.70;71.40;;;;;;5018169;28;20471;-62
2021/01/16 04:58:17;;;;;;;9.13;6.55;;;2.60;69.00;;;;;;5017668;28;20022;-60
2021/01/16 05:00:43;;;;;;;7.45;5.57;;;2.50;68.50;;;;;;5002580;28;20104;-61
2021/01/16 05:03:13;;;;;;;9.38;5.80;;;2.50;67.80;;;;;;5003518;28;20113;-61
2021/01/16 05:05:42;;;;;;;9.25;6.43;;;2.50;67.60;;;;;;5013271;28;20041;-62
2021/01/16 05:08:09;;;;;;;11.77;6.03;;;2.60;68.00;;;;;;5005727;28;20026;-62
2021/01/16 05:10:44;;;;;;;8.27;5.82;;;2.60;66.60;;;;;;5027287;28;20022;-62
2021/01/16 05:13:15;;;;;;;9.60;5.90;;;2.60;66.30;;;;;;5012726;28;20044;-62
2021/01/16 05:15:43;;;;;;;9.40;5.90;;;2.50;65.90;;;;;;5012615;28;20031;-62
2021/01/16 05:18:11;;;;;;;9.55;6.15;;;2.60;65.90;;;;;;4997974;28;20076;-64
2021/01/16 05:20:40;;;;;;;8.55;5.85;;;2.60;64.70;;;;;;5028490;28;20108;-61
2021/01/16 05:23:12;;;;;;;9.35;6.05;;;2.60;64.70;;;;;;5009961;28;20038;-62
2021/01/16 05:25:51;;;;;;;8.40;5.45;;;2.70;64.50;;;;;;5015694;28;20497;-62
2021/01/16 05:28:19;;;;;;;8.25;5.18;;;2.70;63.30;;;;;;5013102;28;20096;-62
2021/01/16 05:30:52;;;;;;;8.52;5.53;;;2.60;62.50;;;;;;5011459;28;20068;-61
2021/01/16 05:33:19;;;;;;;8.35;5.38;;;2.50;62.40;;;;;;5012928;28;20034;-61
2021/01/16 05:35:45;;;;;;;7.63;5.25;;;2.50;62.40;;;;;;5012909;28;20034;-61
2021/01/16 05:38:13;;;;;;;9.38;6.28;;;2.50;62.80;;;;;;5012849;28;20026;-61
2021/01/16 05:40:39;;;;;;;7.97;5.38;;;2.50;62.90;;;;;;5012874;28;20037;-61
2021/01/16 05:43:06;;;;;;;8.95;5.43;;;2.60;62.50;;;;;;5012646;28;20026;-61
2021/01/16 05:45:36;;;;;;;7.10;4.88;;;2.60;62.40;;;;;;5012850;28;20352;-60
2021/01/16 05:48:04;;;;;;;7.28;4.97;;;2.70;61.30;;;;;;5012226;28;20029;-61
2021/01/16 05:50:30;;;;;;;8.55;5.63;;;2.60;61.20;;;;;;5024906;28;20053;-61
2021/01/16 05:52:56;;;;;;;8.15;5.18;;;2.60;62.00;;;;;;5026452;28;20026;-61
2021/01/16 05:57:48;;;;;;;8.02;5.25;;;2.80;62.10;;;;;;5105057;22;20049;-63
2021/01/16 06:00:26;;;;;;;8.40;5.35;;;2.80;61.00;;;;;;5034979;28;20043;-65
2021/01/16 06:02:52;;;;;;;8.52;5.53;;;2.70;61.20;;;;;;5029469;28;20029;-63
2021/01/16 06:05:25;;;;;;;8.70;5.60;;;2.60;61.70;;;;;;5030654;28;20033;-64
2021/01/16 06:07:54;;;;;;;10.02;6.13;;;2.70;62.30;;;;;;5030470;28;20040;-64
2021/01/16 06:10:21;;;;;;;10.75;6.53;;;2.50;64.80;;;;;;5031243;28;20036;-65
2021/01/16 06:12:48;;;;;;;9.90;6.22;;;2.50;69.10;;;;;;5030653;28;20112;-64
2021/01/16 06:15:19;;;;;;;8.85;6.47;;;2.50;69.40;;;;;;5045502;28;20481;-64
2021/01/16 06:17:49;;;;;;;10.48;6.10;;;2.50;69.00;;;;;;5035389;28;20527;-65
2021/01/16 06:20:20;;;;;;;10.23;5.88;;;2.60;68.10;;;;;;5044068;28;20335;-66
2021/01/16 06:22:52;;;;;;;7.82;5.47;;;2.60;66.00;;;;;;5027190;28;20029;-66
2021/01/16 06:25:18;;;;;;;9.63;6.50;;;2.60;63.90;;;;;;5012612;28;20014;-65
2021/01/16 06:27:46;;;;;;;10.52;7.28;;;2.60;64.10;;;;;;5010923;28;20069;-64
2021/01/16 06:30:20;;;;;;;11.13;6.78;;;2.60;63.80;;;;;;5016112;28;20082;-65
2021/01/16 06:32:50;;;;;;;9.68;6.63;;;2.70;63.80;;;;;;5037609;28;20052;-66
2021/01/16 06:35:17;;;;;;;9.15;5.78;;;2.80;62.80;;;;;;5051435;28;20025;-64
2021/01/16 06:37:44;;;;;;;9.52;6.03;;;2.70;62.50;;;;;;5018202;28;20080;-65
2021/01/16 06:40:11;;;;;;;12.77;6.72;;;2.80;63.00;;;;;;5010329;28;20432;-67
2021/01/16 06:42:38;;;;;;;10.45;6.35;;;2.70;62.20;;;;;;5019142;28;20034;-65
2021/01/16 06:45:10;;;;;;;9.80;6.18;;;2.80;62.20;;;;;;5026973;28;20092;-66
2021/01/16 06:47:38;;;;;;;11.30;7.15;;;2.90;62.20;;;;;;5041563;28;20112;-66
2021/01/16 06:50:08;;;;;;;9.45;6.50;;;2.90;62.00;;;;;;5012706;28;20030;-65
2021/01/16 06:52:38;;;;;;;9.35;6.25;;;2.90;62.20;;;;;;5011955;28;20034;-64
2021/01/16 06:55:06;;;;;;;10.48;6.32;;;3.00;62.40;;;;;;5012538;28;20018;-65
2021/01/16 06:57:33;;;;;;;10.02;6.88;;;3.00;62.30;;;;;;5031767;28;20141;-65
2021/01/16 07:00:06;;;;;;;11.80;6.97;;;3.00;62.30;;;;;;5017006;28;20105;-66
2021/01/16 07:02:34;;;;;;;8.30;6.03;;;2.90;62.60;;;;;;5021123;28;20026;-64
2021/01/16 07:05:18;;;;;;;10.30;6.65;;;2.80;64.80;;;;;;5012481;28;20490;-66
2021/01/16 07:07:47;;;;;;;11.15;7.57;;;2.70;65.40;;;;;;5013579;28;20037;-66
2021/01/16 07:10:15;;;;;;;10.70;7.20;;;2.60;67.20;;;;;;5026238;28;20029;-64
2021/01/16 07:12:43;;;;;;;11.35;7.15;;;2.60;68.50;;;;;;5018956;28;20053;-65
2021/01/16 07:15:10;;;;;;;12.68;7.22;;;2.60;69.00;;;;;;5033069;28;20317;-65
2021/01/16 07:17:37;;;;;;;9.82;6.53;;;2.70;69.50;;;;;;5046644;28;20076;-64
2021/01/16 07:20:08;;;;;;;14.57;6.85;;;2.70;68.70;;;;;;5016459;28;20052;-65
2021/01/16 07:22:38;;;;;;;10.50;7.32;;;2.70;68.00;;;;;;5020165;28;20053;-63
2021/01/16 07:25:05;;;;;;;11.13;6.93;;;2.70;67.50;;;;;;5042210;28;20109;-64
2021/01/16 07:27:33;;;;;;;20.25;7.10;;;2.60;66.40;;;;;;5014746;28;20056;-64
2021/01/16 07:30:00;;;;;;;14.63;6.68;;;2.60;67.60;;;;;;5014393;28;20057;-66
2021/01/16 07:32:52;;;;;;;8.93;6.50;;;2.70;67.10;;;;;;5031351;28;20068;-66
2021/01/16 07:35:23;;;;;;;10.50;7.13;;;2.70;65.40;;;;;;5026016;28;20037;-66
2021/01/16 07:37:52;;;;;;;10.15;7.10;;;2.70;65.60;;;;;;5030886;28;20036;-65
2021/01/16 07:40:20;;;;;;;10.40;6.50;;;2.80;64.50;;;;;;5014904;28;20026;-68
2021/01/16 07:42:55;;;;;;;9.07;6.13;;;2.80;63.50;;;;;;5021016;28;20113;-67
2021/01/16 07:45:24;;;;;;;9.85;6.25;;;2.70;63.20;;;;;;5022666;28;20055;-66
2021/01/16 07:47:59;;;;;;;9.63;6.03;;;2.70;62.10;;;;;;5032967;28;20033;-65
2021/01/16 07:50:26;;;;;;;9.07;6.22;;;2.70;61.90;;;;;;5025711;28;20022;-66
2021/01/16 07:53:00;;;;;;;11.25;7.35;;;2.70;62.10;;;;;;5027618;28;20053;-64
2021/01/16 07:55:35;;;;;;;10.95;6.25;;;2.70;61.50;;;;;;5054160;28;20086;-66
2021/01/16 07:58:28;;;;;;;11.23;6.50;;;2.70;62.10;;;;;;5025023;28;20057;-65
2021/01/16 08:01:02;;;;;;;10.43;6.32;;;2.90;61.50;;;;;;5021154;28;20033;-64
2021/01/16 08:03:42;;;;;;;9.68;6.75;;;2.80;62.00;;;;;;5033039;28;20025;-65
2021/01/16 08:06:16;;;;;;;9.80;6.60;;;2.80;64.90;;;;;;5020726;28;20377;-64
2021/01/16 08:09:04;;;;;;;11.82;7.60;;;2.70;67.10;;;;;;5019984;28;20132;-65
2021/01/16 08:11:35;;;;;;;12.35;7.03;;;2.50;68.40;;;;;;5014318;28;20080;-65
2021/01/16 08:14:01;;;;;;;10.13;6.95;;;2.60;69.60;;;;;;5020032;28;20032;-65
2021/01/16 08:16:28;;;;;;;12.13;6.47;;;2.70;69.40;;;;;;5018452;28;20065;-65
2021/01/16 08:19:23;;;;;;;10.77;6.72;;;2.60;67.50;;;;;;5028465;28;20951;-64
2021/01/16 08:21:59;;;;;;;10.77;7.10;;;2.50;67.70;;;;;;5013520;28;20144;-65
2021/01/16 08:24:27;;;;;;;10.63;7.18;;;2.40;69.40;;;;;;5023855;28;20083;-65
2021/01/16 08:27:00;;;;;;;11.55;7.60;;;2.40;69.90;;;;;;5048495;28;20037;-64
2021/01/16 08:29:27;;;;;;;;;;;2.50;70.30;;;;;;5049102;28;20026;-64
2021/01/16 08:32:11;;;;;;;8.93;6.28;;;2.60;70.40;;;;;;5031453;28;20004;-63
2021/01/16 08:34:50;;;;;;;9.20;6.50;;;2.60;69.30;;;;;;5032504;28;20120;-63
2021/01/16 08:37:30;;;;;;;12.43;6.93;;;2.60;69.70;;;;;;5032393;28;20587;-63
2021/01/16 08:39:57;;;;;;;10.90;6.07;;;2.60;69.80;;;;;;5031709;28;20025;-63
2021/01/16 08:42:28;;;;;;;10.68;6.40;;;2.70;69.70;;;;;;5043167;28;20584;-64
2021/01/16 08:44:57;;;;;;;11.60;6.78;;;2.60;68.30;;;;;;5050475;28;20060;-64
2021/01/16 08:47:23;;;;;;;11.98;7.13;;;2.60;67.90;;;;;;5051861;28;20202;-65
2021/01/16 08:49:50;;;;;;;13.60;7.45;;;2.50;68.70;;;;;;5050849;28;20025;-67
2021/01/16 08:52:45;;;;;;;10.38;6.80;;;2.50;69.70;;;;;;5047546;28;20080;-63
2021/01/16 08:55:11;;;;;;;11.60;7.50;;;2.60;68.50;;;;;;5025932;28;20049;-63
2021/01/16 08:57:38;;;;;;;11.63;7.32;;;2.70;69.50;;;;;;5042014;28;20053;-62
2021/01/16 09:00:13;;;;;;;13.38;7.00;;;2.60;69.20;;;;;;5030595;28;20109;-63
2021/01/16 09:02:39;;;;;;;10.38;6.65;;;2.50;69.40;;;;;;5031021;28;20029;-63
2021/01/16 09:05:22;;;;;;;9.27;6.93;;;2.50;68.70;;;;;;5032547;28;20537;-62
2021/01/16 09:07:47;;;;;;;12.85;7.80;;;2.50;68.60;;;;;;5029643;28;20128;-63
2021/01/16 09:10:24;;;;;;;11.65;6.93;;;2.50;71.10;;;;;;5032329;28;20120;-65
2021/01/16 09:12:51;;;;;;;12.25;7.10;;;2.50;69.50;;;;;;5005304;28;20291;-63
2021/01/16 09:15:20;;;;;;;10.95;7.00;;;2.50;70.10;;;;;;5024189;28;20120;-65
2021/01/16 09:18:04;;;;;;;11.60;6.95;;;2.40;68.10;;;;;;5027500;28;20491;-65
2021/01/16 09:20:54;;;;;;;11.30;7.25;;;2.50;70.10;;;;;;5030380;28;20036;-64
2021/01/16 09:23:24;;;;;;;10.85;7.07;;;2.40;67.70;;;;;;5020200;28;20431;-65
2021/01/16 09:25:52;;;;;;;14.85;7.78;;;2.20;70.00;;;;;;5023972;28;20034;-65
2021/01/16 09:28:52;;;;;;;14.45;9.18;;;2.20;71.10;;;;;;5026518;28;20036;-65
2021/01/16 09:31:45;;;;;;;12.75;8.95;;;2.50;72.50;;;;;;5007571;28;20038;-67
2021/01/16 09:34:20;;;;;;;11.23;7.78;;;2.50;72.10;;;;;;5019769;28;20240;-66
2021/01/16 09:36:56;;;;;;;13.65;8.50;;;2.50;70.90;;;;;;5007540;28;20047;-65
2021/01/16 09:39:33;;;;;;;15.07;8.70;;;2.60;71.60;;;;;;5033158;28;20037;-65
2021/01/16 09:42:00;;;;;;;13.30;8.88;;;2.70;71.20;;;;;;5029933;28;20036;-65
2021/01/16 09:44:47;;;;;;;11.50;8.05;;;2.80;69.50;;;;;;5025105;28;20030;-64
2021/01/16 09:47:28;;;;;;;12.75;8.95;;;2.90;68.70;;;;;;5012032;28;20192;-64
2021/01/16 09:50:00;;;;;;;11.30;7.82;;;3.00;71.00;;;;;;5012545;28;20025;-64
2021/01/16 09:52:25;;;;;;;11.90;7.65;;;3.20;70.70;;;;;;5030395;28;20029;-65
2021/01/16 09:54:53;;;;;;;11.32;8.18;;;3.30;70.40;;;;;;5019686;28;20460;-65
2021/01/16 09:57:35;;;;;;;14.85;7.88;;;3.50;69.40;;;;;;5010660;28;20399;-66
2021/01/16 10:00:10;;;;;;;9.88;7.03;;;3.60;67.40;;;;;;5025896;28;20528;-66
2021/01/16 10:02:42;;;;;;;11.45;7.20;;;3.60;67.40;;;;;;5017353;28;20113;-67
2021/01/16 10:05:16;;;;;;;17.10;11.27;;;3.60;67.60;;;;;;5019691;28;20543;-65
2021/01/16 10:07:45;;;;;;;8.35;6.03;;;3.50;65.30;;;;;;5030295;28;20034;-66
2021/01/16 10:10:13;;;;;;;9.13;6.15;;;3.30;65.00;;;;;;5028835;28;20039;-65
2021/01/16 10:12:40;;;;;;;9.95;6.10;;;3.20;63.40;;;;;;5028924;28;20034;-65
2021/01/16 10:15:11;;;;;;;9.07;6.50;;;3.10;65.10;;;;;;5020474;28;20034;-64
2021/01/16 10:17:42;;;;;;;12.93;7.40;;;3.20;65.80;;;;;;5011861;28;20124;-65
2021/01/16 10:20:10;;;;;;;8.02;5.38;;;3.40;66.70;;;;;;5031765;28;20029;-64
2021/01/16 10:22:36;;;;;;;10.40;6.75;;;3.40;62.80;;;;;;5030889;28;20022;-63
2021/01/16 10:25:10;;;;;;;9.85;6.50;;;3.50;63.40;;;;;;5031316;28;20029;-63
2021/01/16 10:27:52;;;;;;;10.18;6.47;;;3.40;64.50;;;;;;5028627;28;20040;-66
2021/01/16 10:30:23;;;;;;;10.20;6.20;;;3.60;63.20;;;;;;5030946;28;20367;-66
2021/01/16 10:32:51;;;;;;;10.38;6.18;;;3.50;60.20;;;;;;5022133;28;20033;-62
2021/01/16 10:35:24;;;;;;;8.88;6.00;;;3.50;59.50;;;;;;5021854;28;20391;-65
2021/01/16 10:37:51;;;;;;;8.82;6.07;;;3.60;63.90;;;;;;5015800;28;20470;-65
2021/01/16 10:40:17;;;;;;;6.90;5.43;;;3.80;61.10;;;;;;5026925;28;20040;-66
2021/01/16 10:42:55;;;;;;;9.00;5.57;;;4.00;58.20;;;;;;5029416;28;20458;-65
2021/01/16 10:45:27;;;;;;;10.32;6.22;;;3.90;57.50;;;;;;5028929;28;20030;-67
2021/01/16 10:47:56;;;;;;;8.77;6.13;;;3.90;58.40;;;;;;5030469;28;20032;-66
2021/01/16 10:50:28;;;;;;;8.88;6.22;;;4.00;58.20;;;;;;5031341;28;20080;-66
2021/01/16 10:53:05;;;;;;;8.77;6.03;;;4.10;56.60;;;;;;5030372;28;20029;-65
2021/01/16 10:56:06;;;;;;;9.07;5.60;;;4.00;54.40;;;;;;5030041;28;20104;-67
2021/01/16 11:01:45;;;;;;;11.10;6.50;;;4.20;57.20;;;;;;5016873;28;20104;-63
2021/01/16 11:04:17;;;;;;;8.65;5.90;;;4.40;55.40;;;;;;5025276;28;20037;-64
2021/01/16 11:07:10;;;;;;;9.57;6.05;;;4.50;55.40;;;;;;5030563;28;20033;-64
2021/01/16 11:09:36;;;;;;;10.80;6.33;;;4.50;53.90;;;;;;5027239;28;20079;-64
2021/01/16 11:12:06;;;;;;;9.45;6.45;;;4.40;52.70;;;;;;5029828;28;20053;-65
2021/01/16 11:14:35;;;;;;;7.97;5.72;;;4.30;52.40;;;;;;5029717;28;20037;-68
2021/01/16 11:17:05;;;;;;;10.80;6.10;;;4.20;51.50;;;;;;5027447;28;20436;-64
2021/01/16 11:19:33;;;;;;;9.35;6.35;;;4.10;51.60;;;;;;5029168;28;20029;-64
2021/01/16 11:22:10;;;;;;;13.68;7.32;;;4.20;52.00;;;;;;5027974;28;20039;-62
2021/01/16 11:24:54;;;;;;;9.50;6.50;;;4.30;52.10;;;;;;5027716;28;20036;-63
2021/01/16 11:27:27;;;;;;;;;;;4.20;50.50;;;;;;5029673;28;20034;-62
2021/01/16 11:30:03;;;;;;;9.25;6.03;;;4.10;50.20;;;;;;5045845;28;20007;-64
2021/01/16 11:32:37;;;;;;;7.88;5.35;;;4.00;50.40;;;;;;5025714;28;20033;-62
2021/01/16 11:35:13;;;;;;;8.15;5.70;;;3.90;49.50;;;;;;5028310;28;20084;-62
2021/01/16 11:37:58;;;;;;;8.15;5.60;;;4.10;49.80;;;;;;5029329;28;20034;-62
2021/01/16 11:40:39;;;;;;;9.52;5.53;;;4.80;48.20;;;;;;5031621;28;20025;-63
2021/01/16 11:43:10;;;;;;;7.82;5.47;;;5.00;47.20;;;;;;5014604;28;20061;-63
2021/01/16 11:45:38;;;;;;;8.85;5.78;;;4.40;47.10;;;;;;5019983;28;20115;-64
2021/01/16 11:48:06;;;;;;;9.63;6.38;;;4.10;48.30;;;;;;5048128;28;20037;-62
2021/01/16 11:50:37;;;;;;;9.88;6.30;;;4.00;49.00;;;;;;5027867;28;20022;-64
2021/01/16 11:53:10;;;;;;;8.88;6.00;;;4.10;49.30;;;;;;5026860;28;20037;-64
2021/01/16 11:55:36;;;;;;;9.73;5.60;;;4.20;49.60;;;;;;5046618;28;20040;-64
2021/01/16 11:58:03;;;;;;;8.93;6.07;;;4.40;48.90;;;;;;5051848;28;20071;-65
2021/01/16 12:00:30;;;;;;;8.63;6.15;;;4.70;48.00;;;;;;5036781;28;20033;-63
2021/01/16 12:02:57;;;;;;;7.78;5.28;;;5.30;47.20;;;;;;5034129;28;20050;-64
2021/01/16 12:05:24;;;;;;;8.65;5.90;;;5.40;46.30;;;;;;5027703;28;20542;-63
2021/01/16 12:07:52;;;;;;;9.15;5.80;;;5.10;45.00;;;;;;5030587;28;20486;-62
2021/01/16 12:10:19;;;;;;;9.07;5.40;;;4.70;45.80;;;;;;5030304;28;20117;-64
2021/01/16 12:12:45;;;;;;;8.32;5.85;;;4.40;46.50;;;;;;5033638;28;20025;-64
2021/01/16 12:15:21;;;;;;;8.98;5.72;;;4.30;47.60;;;;;;5030950;28;20389;-62
2021/01/16 12:17:50;;;;;;;11.52;6.00;;;4.30;46.60;;;;;;5029904;28;20409;-65
2021/01/16 12:20:17;;;;;;;9.18;5.85;;;4.10;46.50;;;;;;5028143;28;20033;-64
2021/01/16 12:22:44;;;;;;;9.07;5.65;;;3.80;45.70;;;;;;5018358;28;20026;-63
2021/01/16 12:25:13;;;;;;;17.05;8.30;;;3.70;46.40;;;;;;5032265;28;20021;-64
2021/01/16 12:27:51;;;;;;;7.88;5.32;;;3.50;47.20;;;;;;5033169;28;20061;-63
2021/01/16 12:30:21;;;;;;;9.50;5.43;;;3.40;47.10;;;;;;5023863;28;20030;-64
2021/01/16 12:32:47;;;;;;;7.78;5.30;;;3.30;48.00;;;;;;5027515;28;20025;-64
2021/01/16 12:35:14;;;;;;;8.07;5.32;;;3.20;47.60;;;;;;5051090;28;20024;-65
2021/01/16 12:37:41;;;;;;;10.43;7.35;;;3.10;47.80;;;;;;5038597;28;20474;-64
2021/01/16 12:40:18;;;;;;;9.85;5.85;;;3.30;49.00;;;;;;5015468;28;20589;-64
2021/01/16 12:42:47;;;;;;;7.70;5.47;;;3.20;47.50;;;;;;5033991;28;20547;-62
2021/01/16 12:45:18;;;;;;;8.27;5.50;;;3.20;47.90;;;;;;5032527;28;20017;-63
2021/01/16 12:47:47;;;;;;;7.80;5.18;;;3.30;48.00;;;;;;5033848;28;20048;-64
2021/01/16 12:50:13;;;;;;;8.45;5.50;;;3.30;47.50;;;;;;5048107;28;20143;-64
2021/01/16 12:52:48;;;;;;;7.40;5.20;;;3.20;47.20;;;;;;5032371;28;20116;-64
2021/01/16 12:55:16;;;;;;;9.15;5.78;;;3.00;46.90;;;;;;5029984;28;20437;-64
2021/01/16 12:57:44;;;;;;;10.32;6.25;;;3.00;48.50;;;;;;5019215;28;20057;-64
2021/01/16 13:00:15;;;;;;;9.80;5.47;;;3.00;48.40;;;;;;5039971;28;20033;-67
2021/01/16 13:02:41;;;;;;;8.38;5.32;;;2.90;47.30;;;;;;5027051;28;20475;-66
2021/01/16 13:05:11;;;;;;;8.80;5.45;;;2.90;47.30;;;;;;5029850;28;20026;-65
2021/01/16 13:07:57;;;;;;;8.63;5.72;;;3.00;48.10;;;;;;5035392;28;20417;-65
2021/01/16 13:10:26;;;;;;;9.13;5.50;;;3.10;48.50;;;;;;5030844;28;20252;-65
2021/01/16 13:12:52;;;;;;;9.07;5.70;;;3.10;48.40;;;;;;5033081;28;20463;-65
2021/01/16 13:15:17;;;;;;;9.07;6.28;;;3.20;48.60;;;;;;5032516;28;20030;-66
2021/01/16 13:17:45;;;;;;;8.50;5.97;;;3.30;48.70;;;;;;5032477;28;20076;-65